Time;durP1;ratioP1;P1;durP2;ratioP2;P2;SDS_P1;SDS_P2;PMS_P1;PMS_P2;Temp;Humidity;BMP_temperature;BMP_pressure;BME280_temperature;BME280_humidity;BME280_pressure;Samples;Min_cycle;Max_cycle;Signal;HPM_P1;HPM_P2
2023/08/17 00:01:37;;;;;;;4.40;3.10;;;;;;;28.47;52.40;101714.91;107103;1263;25343;-49
2023/08/17 00:04:04;;;;;;;5.30;3.00;;;;;;;28.46;52.48;101713.58;107088;1257;25567;-49
2023/08/17 00:06:31;;;;;;;4.20;2.80;;;;;;;28.44;52.40;101714.45;107111;1260;22530;-48
2023/08/17 00:08:58;;;;;;;3.90;2.60;;;;;;;28.41;52.44;101713.41;107038;1264;25356;-49
2023/08/17 00:11:25;;;;;;;6.80;2.70;;;;;;;28.40;52.35;101715.30;106942;1269;25398;-48
2023/08/17 00:13:51;;;;;;;3.80;3.00;;;;;;;28.38;52.45;101715.77;107200;1263;25337;-49
2023/08/17 00:16:18;;;;;;;5.40;2.80;;;;;;;28.38;52.34;101708.00;107104;1263;25321;-48
2023/08/17 00:18:45;;;;;;;3.40;2.80;;;;;;;28.36;52.21;101708.67;107073;1263;25328;-48
2023/08/17 00:21:12;;;;;;;4.90;3.20;;;;;;;28.35;52.22;101710.77;107008;1254;22544;-48
2023/08/17 00:23:39;;;;;;;4.30;3.00;;;;;;;28.33;52.22;101710.34;107043;1259;25319;-49
2023/08/17 00:26:06;;;;;;;3.00;2.70;;;;;;;28.31;52.20;101713.36;107108;1263;25337;-48
2023/08/17 00:28:33;;;;;;;7.60;3.40;;;;;;;28.28;52.18;101714.14;107069;1254;25376;-49
2023/08/17 00:31:00;;;;;;;5.00;2.80;;;;;;;28.25;52.22;101714.40;107102;1263;25505;-49
2023/08/17 00:33:27;;;;;;;4.40;2.90;;;;;;;28.22;52.09;101718.07;106876;1254;371316;-48
2023/08/17 00:35:55;;;;;;;5.00;3.10;;;;;;;28.22;51.96;101718.95;106823;1257;25469;-49
2023/08/17 00:38:21;;;;;;;4.80;3.20;;;;;;;28.19;52.25;101719.17;107073;1257;25359;-49
2023/08/17 00:40:48;;;;;;;4.60;3.00;;;;;;;28.16;52.92;101716.52;107017;1257;25356;-49
2023/08/17 00:43:15;;;;;;;9.70;4.00;;;;;;;28.13;53.00;101718.02;107139;1255;22644;-48
2023/08/17 00:45:43;;;;;;;3.40;2.80;;;;;;;28.09;52.88;101716.73;107014;1264;25356;-48
2023/08/17 00:48:10;;;;;;;4.00;3.00;;;;;;;28.04;52.60;101717.64;106925;1267;22516;-49
2023/08/17 00:50:37;;;;;;;3.80;2.80;;;;;;;28.01;52.46;101718.50;107073;1253;25242;-48
2023/08/17 00:53:04;;;;;;;3.40;2.90;;;;;;;27.98;52.25;101721.60;106919;1266;25480;-48
2023/08/17 00:55:32;;;;;;;4.50;3.10;;;;;;;27.94;52.62;101718.63;107137;1264;25392;-49
2023/08/17 00:57:59;;;;;;;6.20;3.30;;;;;;;27.93;52.70;101715.20;107104;1254;24330;-49
2023/08/17 01:00:27;;;;;;;3.30;3.00;;;;;;;27.90;52.37;101714.86;107203;1254;25328;-49
2023/08/17 01:02:55;;;;;;;6.30;3.10;;;;;;;27.87;52.30;101710.84;107013;1256;24171;-49
2023/08/17 01:05:23;;;;;;;4.50;3.10;;;;;;;27.85;52.24;101713.72;107183;1262;25331;-48
2023/08/17 01:07:50;;;;;;;3.10;2.80;;;;;;;27.86;52.11;101710.23;107047;1260;25395;-48
2023/08/17 01:10:17;;;;;;;3.30;3.00;;;;;;;27.85;51.98;101704.59;107109;1257;25507;-48
2023/08/17 01:13:21;;;;;;;6.10;3.30;;;;;;;27.84;52.03;101702.39;107035;1260;25408;-49
2023/08/17 01:15:50;;;;;;;3.70;3.40;;;;;;;27.83;52.20;101704.59;106628;1261;25404;-49
2023/08/17 01:18:24;;;;;;;3.80;3.40;;;;;;;27.81;52.03;101700.45;106489;1260;25301;-49
2023/08/17 01:20:52;;;;;;;4.20;3.00;;;;;;;27.78;51.88;101697.66;106486;1262;25389;-48
2023/08/17 01:23:19;;;;;;;7.50;3.40;;;;;;;27.75;51.74;101690.79;106571;1268;23870;-49
2023/08/17 01:25:46;;;;;;;4.20;3.50;;;;;;;27.72;51.48;101692.81;106332;1264;25332;-49
2023/08/17 01:28:13;;;;;;;3.50;3.20;;;;;;;27.66;51.38;101692.73;106518;1263;25503;-49
2023/08/17 01:31:16;;;;;;;4.00;3.00;;;;;;;27.65;51.03;101686.08;106510;1269;25377;-48
2023/08/17 01:33:52;;;;;;;4.00;3.70;;;;;;;27.59;51.01;101687.19;106498;1259;25366;-49
2023/08/17 01:36:22;;;;;;;4.80;3.10;;;;;;;27.56;50.84;101682.11;106360;1265;25626;-49
2023/08/17 01:38:51;;;;;;;4.40;3.00;;;;;;;27.53;50.94;101680.20;106454;1259;22613;-49
2023/08/17 01:41:18;;;;;;;4.20;3.40;;;;;;;27.49;50.97;101678.41;106474;1273;22535;-48
2023/08/17 01:43:45;;;;;;;6.00;3.80;;;;;;;27.46;50.89;101679.38;106516;1262;25342;-49
2023/08/17 01:46:15;;;;;;;5.30;3.70;;;;;;;27.44;50.92;101675.96;106302;1278;24268;-48
2023/08/17 01:48:43;;;;;;;4.10;3.50;;;;;;;27.40;50.87;101672.27;106464;1271;22536;-48
2023/08/17 01:51:11;;;;;;;4.00;3.40;;;;;;;27.37;50.83;101672.70;106484;1265;25355;-48
2023/08/17 01:53:38;;;;;;;7.10;3.90;;;;;;;27.34;50.65;101668.48;107085;1267;24020;-50
2023/08/17 01:56:05;;;;;;;4.40;4.00;;;;;;;27.32;50.71;101670.06;107036;1263;22520;-51
2023/08/17 01:58:31;;;;;;;4.60;3.70;;;;;;;27.27;50.76;101664.54;106753;1267;25322;-49
2023/08/17 02:00:58;;;;;;;5.30;3.30;;;;;;;27.22;50.97;101663.30;106945;1266;25401;-50
2023/08/17 02:03:28;;;;;;;5.60;4.20;;;;;;;27.18;51.12;101666.13;106865;1260;25359;-50
2023/08/17 02:05:56;;;;;;;5.70;3.40;;;;;;;27.15;51.50;101671.15;106963;1254;25328;-50
2023/08/17 02:08:23;;;;;;;8.80;4.30;;;;;;;27.11;51.51;101668.09;107077;1257;25332;-50
2023/08/17 02:10:52;;;;;;;8.00;3.80;;;;;;;27.08;51.62;101672.42;107027;1254;25478;-49
2023/08/17 02:13:21;;;;;;;5.60;4.30;;;;;;;27.04;51.53;101673.80;107147;1254;22531;-49
2023/08/17 02:15:48;;;;;;;5.70;3.80;;;;;;;27.02;51.38;101680.21;107098;1264;25402;-49
2023/08/17 02:18:15;;;;;;;5.90;3.60;;;;;;;26.98;51.27;101680.52;107125;1254;25353;-50
2023/08/17 02:20:42;;;;;;;4.10;3.40;;;;;;;26.95;51.28;101683.24;107106;1257;25510;-49
2023/08/17 02:23:10;;;;;;;5.10;3.70;;;;;;;26.91;51.63;101684.42;107155;1263;25359;-50
2023/08/17 02:25:38;;;;;;;5.20;4.30;;;;;;;26.87;51.81;101680.15;107038;1260;25465;-49
2023/08/17 02:28:05;;;;;;;4.60;4.10;;;;;;;26.84;52.34;101681.96;107137;1253;25399;-49
2023/08/17 02:30:33;;;;;;;4.20;3.90;;;;;;;26.82;52.66;101682.32;107168;1257;25375;-49
2023/08/17 02:33:00;;;;;;;4.20;3.80;;;;;;;26.79;52.76;101683.58;106923;1272;25355;-49
2023/08/17 02:35:27;;;;;;;3.90;3.50;;;;;;;26.76;52.64;101687.52;107100;1260;25331;-50
2023/08/17 02:37:54;;;;;;;5.60;3.60;;;;;;;26.56;52.76;101687.61;107111;1257;25334;-50
2023/08/17 02:40:22;;;;;;;3.90;3.50;;;;;;;26.43;53.55;101687.83;107179;1254;25430;-50
2023/08/17 02:42:49;;;;;;;4.50;3.50;;;;;;;26.40;53.70;101687.19;107182;1263;23305;-49
2023/08/17 02:45:16;;;;;;;6.40;4.30;;;;;;;26.38;53.51;101687.70;107036;1260;25352;-49
2023/08/17 02:47:43;;;;;;;4.50;3.70;;;;;;;26.36;53.38;101685.14;107041;1257;25384;-49
2023/08/17 02:50:10;;;;;;;3.30;3.10;;;;;;;26.34;53.34;101684.45;107134;1266;25383;-49
2023/08/17 02:52:37;;;;;;;3.40;3.20;;;;;;;26.31;53.24;101684.12;107194;1257;25428;-49
2023/08/17 02:55:05;;;;;;;3.80;3.40;;;;;;;26.28;53.32;101688.23;107113;1256;25414;-49
2023/08/17 02:57:32;;;;;;;4.00;3.70;;;;;;;26.26;53.75;101689.11;107181;1260;25478;-49
2023/08/17 02:59:59;;;;;;;4.90;3.80;;;;;;;26.26;53.59;101690.88;106633;1274;25350;-48
2023/08/17 03:02:26;;;;;;;3.70;3.40;;;;;;;26.27;53.58;101690.67;107054;1257;25432;-48
2023/08/17 03:04:53;;;;;;;4.20;3.60;;;;;;;26.27;53.60;101692.98;107210;1266;25328;-48
2023/08/17 03:07:20;;;;;;;6.30;3.90;;;;;;;26.27;53.79;101695.48;107243;1263;25408;-48
2023/08/17 03:09:47;;;;;;;5.00;3.80;;;;;;;26.26;53.83;101695.02;107173;1257;25322;-48
2023/08/17 03:12:14;;;;;;;4.10;3.70;;;;;;;26.24;53.54;101694.24;107098;1266;25321;-49
2023/08/17 03:14:41;;;;;;;3.90;3.60;;;;;;;26.22;53.85;101699.56;107073;1258;25424;-48
2023/08/17 03:17:08;;;;;;;5.00;3.40;;;;;;;26.20;53.83;101701.13;107163;1257;25395;-48
2023/08/17 03:19:35;;;;;;;4.20;3.90;;;;;;;26.18;53.61;101702.70;107144;1255;25328;-49
2023/08/17 03:22:02;;;;;;;4.00;3.40;;;;;;;26.16;53.72;101698.91;107070;1257;25378;-48
2023/08/17 03:24:30;;;;;;;5.50;3.70;;;;;;;26.14;53.49;101695.16;107078;1264;25362;-49
2023/08/17 03:26:57;;;;;;;5.00;4.20;;;;;;;26.11;53.62;101692.87;107100;1263;25316;-49
2023/08/17 03:29:26;;;;;;;3.90;3.60;;;;;;;26.13;53.72;101692.58;107038;1264;25433;-49
2023/08/17 03:31:53;;;;;;;4.50;3.50;;;;;;;26.29;53.40;101699.05;106882;1257;25271;-48
2023/08/17 03:34:23;;;;;;;3.70;3.20;;;;;;;26.30;53.32;101704.11;107079;1261;25359;-48
2023/08/17 03:36:50;;;;;;;6.10;4.10;;;;;;;26.29;53.31;101703.45;106836;1256;25499;-48
2023/08/17 03:39:17;;;;;;;5.90;3.50;;;;;;;26.29;53.27;101698.49;107031;1267;25360;-48
2023/08/17 03:41:44;;;;;;;4.00;3.50;;;;;;;26.28;53.21;101695.77;107049;1257;25355;-48
2023/08/17 03:44:13;;;;;;;4.10;3.70;;;;;;;26.26;53.36;101697.69;107081;1256;25468;-48
2023/08/17 03:46:40;;;;;;;4.50;3.70;;;;;;;26.24;53.64;101696.23;106865;1264;25334;-48
2023/08/17 03:49:07;;;;;;;4.00;3.60;;;;;;;26.23;53.50;101695.41;107175;1267;25331;-49
2023/08/17 03:51:36;;;;;;;4.40;3.60;;;;;;;26.22;53.84;101694.39;107178;1254;22639;-49
2023/08/17 03:54:04;;;;;;;4.30;3.60;;;;;;;26.22;53.92;101694.54;107090;1257;25331;-48
2023/08/17 03:56:31;;;;;;;7.20;4.10;;;;;;;26.23;53.84;101694.63;107096;1263;25349;-48
2023/08/17 03:58:58;;;;;;;4.00;3.70;;;;;;;26.24;53.75;101693.90;107124;1263;25411;-49
2023/08/17 04:01:25;;;;;;;5.20;3.80;;;;;;;26.23;53.80;101688.96;107075;1257;25491;-49
2023/08/17 04:03:52;;;;;;;4.80;4.10;;;;;;;26.24;53.78;101687.70;107031;1271;22511;-48
2023/08/17 04:06:19;;;;;;;6.70;4.40;;;;;;;26.22;53.48;101690.48;107100;1257;25792;-48
2023/08/17 04:08:46;;;;;;;6.40;3.80;;;;;;;26.20;53.73;101687.93;107088;1257;25341;-48
2023/08/17 04:11:13;;;;;;;4.80;3.50;;;;;;;26.20;53.75;101688.34;107251;1266;25405;-48
2023/08/17 04:13:40;;;;;;;4.40;4.00;;;;;;;26.19;53.79;101688.05;106926;1269;25331;-48
2023/08/17 04:16:07;;;;;;;6.50;4.20;;;;;;;26.18;53.84;101689.88;106856;1269;25331;-49
2023/08/17 04:18:34;;;;;;;4.10;3.70;;;;;;;26.16;53.84;101686.11;107152;1257;25402;-49
2023/08/17 04:21:01;;;;;;;4.80;4.00;;;;;;;26.15;54.00;101688.48;107014;1256;22509;-48
2023/08/17 04:23:29;;;;;;;5.70;4.00;;;;;;;26.15;54.00;101689.88;107068;1263;25412;-48
2023/08/17 04:25:56;;;;;;;3.90;3.60;;;;;;;26.15;53.87;101687.48;107158;1257;25305;-48
2023/08/17 04:28:23;;;;;;;4.60;3.60;;;;;;;26.13;53.77;101687.39;107184;1266;25359;-48
2023/08/17 04:30:51;;;;;;;4.00;3.70;;;;;;;26.11;53.97;101688.79;107167;1257;25356;-48
2023/08/17 04:33:18;;;;;;;4.40;4.00;;;;;;;26.11;54.13;101693.42;107132;1257;25478;-48
2023/08/17 04:35:49;;;;;;;5.30;4.50;;;;;;;26.11;53.98;101692.33;107066;1260;25367;-49
2023/08/17 04:38:16;;;;;;;4.40;4.00;;;;;;;26.11;53.94;101693.59;107008;1266;25331;-48
2023/08/17 04:40:43;;;;;;;5.20;4.10;;;;;;;26.12;54.01;101691.23;107085;1256;25570;-49
2023/08/17 04:43:11;;;;;;;5.60;4.10;;;;;;;26.13;54.33;101694.35;107088;1266;24228;-48
2023/08/17 04:45:38;;;;;;;5.10;4.30;;;;;;;26.15;54.04;101691.89;107098;1256;24186;-48
2023/08/17 04:48:06;;;;;;;4.90;4.10;;;;;;;26.16;53.91;101694.45;106789;1267;25395;-49
2023/08/17 04:50:33;;;;;;;4.50;4.00;;;;;;;26.17;53.82;101689.10;106541;1271;25404;-48
2023/08/17 04:53:00;;;;;;;4.50;4.10;;;;;;;26.17;53.69;101692.08;106894;1267;25315;-48
2023/08/17 04:55:27;;;;;;;9.30;4.50;;;;;;;26.19;54.03;101694.10;107162;1264;25405;-48
2023/08/17 04:57:55;;;;;;;4.00;3.70;;;;;;;26.21;53.94;101694.45;107110;1266;25340;-48
2023/08/17 05:00:28;;;;;;;5.40;4.60;;;;;;;26.23;53.92;101691.27;106775;1267;25405;-49
2023/08/17 05:02:55;;;;;;;5.50;4.00;;;;;;;26.25;53.89;101691.67;106891;1266;25404;-48
2023/08/17 05:05:25;;;;;;;7.10;4.40;;;;;;;26.29;53.76;101695.79;106875;1269;25446;-48
2023/08/17 05:07:52;;;;;;;5.10;4.60;;;;;;;26.33;53.84;101694.98;106942;1259;22535;-49
2023/08/17 05:10:19;;;;;;;5.30;4.00;;;;;;;26.34;53.85;101690.27;106821;1260;22530;-48
2023/08/17 05:12:47;;;;;;;6.90;4.40;;;;;;;26.35;53.96;101695.88;106964;1257;25484;-48
2023/08/17 05:15:14;;;;;;;10.00;4.60;;;;;;;26.39;53.69;101695.09;106716;1262;25359;-48
2023/08/17 05:17:41;;;;;;;4.20;3.80;;;;;;;26.43;53.37;101693.05;106677;1271;22530;-48
2023/08/17 05:20:12;;;;;;;5.80;4.20;;;;;;;26.44;53.38;101693.29;106932;1257;25283;-48
2023/08/17 05:22:39;;;;;;;6.60;4.30;;;;;;;26.46;53.44;101696.73;106896;1266;24205;-48
2023/08/17 05:25:07;;;;;;;4.80;4.30;;;;;;;26.49;53.37;101697.58;106874;1266;25316;-48
2023/08/17 05:27:34;;;;;;;5.70;4.20;;;;;;;26.52;53.68;101698.18;106856;1260;24263;-48
2023/08/17 05:30:01;;;;;;;7.20;4.30;;;;;;;26.57;53.48;101697.63;106805;1260;26530;-49
2023/08/17 05:32:29;;;;;;;4.50;4.10;;;;;;;26.62;53.33;101699.58;106782;1267;24247;-48
2023/08/17 05:34:56;;;;;;;4.70;4.10;;;;;;;26.69;53.22;101699.30;106808;1272;25475;-48
2023/08/17 05:37:23;;;;;;;5.60;4.10;;;;;;;26.75;53.36;101700.65;106845;1258;25316;-51
2023/08/17 05:39:51;;;;;;;7.50;4.10;;;;;;;26.82;53.34;101700.05;107007;1266;22537;-50
2023/08/17 05:42:18;;;;;;;5.20;4.70;;;;;;;26.91;53.15;101699.02;106971;1257;25312;-50
2023/08/17 05:44:45;;;;;;;5.20;4.60;;;;;;;26.98;52.73;101697.42;107000;1257;25407;-51
2023/08/17 05:47:15;;;;;;;5.50;4.30;;;;;;;27.08;52.60;101698.80;107036;1257;25395;-51
2023/08/17 05:49:42;;;;;;;4.90;4.40;;;;;;;27.22;52.48;101699.49;107248;1257;25359;-52
2023/08/17 05:52:09;;;;;;;5.90;5.00;;;;;;;27.36;52.04;101701.98;107114;1263;25355;-50
2023/08/17 05:54:36;;;;;;;8.60;4.80;;;;;;;27.50;51.86;101703.46;106951;1254;25321;-48
2023/08/17 05:57:03;;;;;;;4.90;4.50;;;;;;;27.63;51.93;101704.77;107099;1257;24405;-48
2023/08/17 05:59:30;;;;;;;5.30;4.80;;;;;;;27.75;51.76;101699.54;107208;1257;25331;-48
2023/08/17 06:01:57;;;;;;;6.00;5.20;;;;;;;27.87;51.26;101700.84;107105;1254;23747;-48
2023/08/17 06:04:24;;;;;;;5.60;5.10;;;;;;;27.98;50.91;101705.13;106812;1260;25331;-48
2023/08/17 06:06:51;;;;;;;5.60;4.60;;;;;;;28.11;50.36;101708.73;107119;1254;23139;-48
2023/08/17 06:09:18;;;;;;;9.40;5.00;;;;;;;28.22;50.00;101706.93;107099;1259;24374;-48
2023/08/17 06:11:45;;;;;;;7.10;4.80;;;;;;;28.33;49.92;101709.46;107068;1257;24216;-48
2023/08/17 06:14:12;;;;;;;5.60;5.10;;;;;;;28.45;49.99;101710.63;107173;1256;25312;-48
2023/08/17 06:16:39;;;;;;;6.10;5.50;;;;;;;28.54;49.57;101705.55;107136;1260;25430;-48
2023/08/17 06:19:06;;;;;;;6.30;5.10;;;;;;;28.60;49.48;101708.98;107146;1254;25328;-47
2023/08/17 06:21:33;;;;;;;5.50;5.00;;;;;;;28.65;49.65;101705.00;107087;1254;25327;-47
2023/08/17 06:24:00;;;;;;;6.40;5.40;;;;;;;28.70;49.75;101706.56;106809;1260;25514;-48
2023/08/17 06:26:27;;;;;;;7.40;5.30;;;;;;;28.75;49.47;101706.66;106825;1272;25318;-48
2023/08/17 06:28:54;;;;;;;6.30;5.50;;;;;;;28.79;49.33;101707.05;107092;1255;25299;-48
2023/08/17 06:31:27;;;;;;;6.50;5.90;;;;;;;28.85;49.45;101705.29;107086;1256;25328;-47
2023/08/17 06:33:54;;;;;;;6.30;5.80;;;;;;;28.90;49.54;101700.25;107089;1254;22534;-48
2023/08/17 06:36:21;;;;;;;6.70;6.10;;;;;;;28.95;49.50;101701.07;106871;1259;22569;-48
2023/08/17 06:38:48;;;;;;;6.60;5.80;;;;;;;29.03;49.67;101698.67;107115;1254;25405;-48
2023/08/17 06:41:16;;;;;;;6.70;5.60;;;;;;;29.10;49.28;101704.88;107040;1254;25312;-48
2023/08/17 06:43:43;;;;;;;6.90;5.80;;;;;;;29.16;49.36;101702.58;107204;1256;25399;-47
2023/08/17 06:46:10;;;;;;;6.40;5.80;;;;;;;29.22;49.24;101703.27;106934;1264;25331;-48
2023/08/17 06:48:38;;;;;;;7.00;5.70;;;;;;;29.29;48.93;101697.48;106662;1259;25355;-48
2023/08/17 06:51:05;;;;;;;6.40;5.80;;;;;;;29.34;48.89;101705.64;107096;1266;25375;-48
2023/08/17 06:53:32;;;;;;;6.30;5.70;;;;;;;29.37;48.85;101703.80;107072;1264;25331;-48
2023/08/17 06:55:59;;;;;;;8.80;6.20;;;;;;;29.41;48.98;101707.53;106833;1260;25395;-48
2023/08/17 06:58:29;;;;;;;7.30;6.60;;;;;;;29.48;48.77;101705.86;107055;1254;25353;-48
2023/08/17 07:00:56;;;;;;;7.20;5.80;;;;;;;29.52;48.63;101708.34;107129;1257;25346;-48
2023/08/17 07:03:23;;;;;;;7.40;6.40;;;;;;;29.42;49.08;101705.31;106850;1260;25331;-48
2023/08/17 07:05:50;;;;;;;6.40;5.60;;;;;;;29.41;48.74;101706.14;106781;1261;25411;-48
2023/08/17 07:08:17;;;;;;;7.60;5.90;;;;;;;29.41;48.39;101706.98;106748;1274;25408;-48
2023/08/17 07:10:44;;;;;;;7.50;6.40;;;;;;;29.43;48.64;101708.39;107043;1263;24222;-48
2023/08/17 07:13:11;;;;;;;8.10;6.30;;;;;;;29.47;48.69;101707.69;107074;1254;25408;-48
2023/08/17 07:15:38;;;;;;;7.60;6.80;;;;;;;29.56;48.48;101706.40;107081;1257;25331;-48
2023/08/17 07:18:05;;;;;;;6.70;5.90;;;;;;;29.66;48.28;101706.98;107142;1256;25328;-48
2023/08/17 07:20:32;;;;;;;6.40;5.80;;;;;;;29.79;48.13;101704.94;106879;1269;25477;-48
2023/08/17 07:22:59;;;;;;;7.60;6.50;;;;;;;30.01;47.81;101706.78;107216;1257;25356;-49
2023/08/17 07:25:26;;;;;;;6.60;5.80;;;;;;;30.28;47.37;101705.52;107234;1263;22527;-48
2023/08/17 07:27:53;;;;;;;7.80;5.80;;;;;;;30.59;46.51;101704.92;107018;1256;22645;-48
2023/08/17 07:30:20;;;;;;;6.90;6.10;;;;;;;30.88;45.92;101700.13;107082;1256;25356;-48
2023/08/17 07:32:47;;;;;;;6.60;5.90;;;;;;;31.12;45.36;101697.48;107111;1255;25481;-49
2023/08/17 07:35:15;;;;;;;8.40;5.50;;;;;;;31.24;44.68;101692.55;107032;1263;25340;-48
2023/08/17 07:37:42;;;;;;;7.30;5.90;;;;;;;31.28;44.18;101690.36;106852;1256;25442;-48
2023/08/17 07:40:12;;;;;;;8.10;6.20;;;;;;;31.31;44.04;101694.92;107061;1267;25322;-48
2023/08/17 07:42:39;;;;;;;6.70;6.10;;;;;;;31.29;43.90;101692.83;106910;1266;25334;-48
2023/08/17 07:45:07;;;;;;;8.30;6.20;;;;;;;31.21;44.14;101696.66;106881;1266;25408;-48
2023/08/17 07:47:36;;;;;;;6.30;5.70;;;;;;;31.11;44.00;101693.84;107114;1257;23874;-48
2023/08/17 07:50:04;;;;;;;9.50;5.90;;;;;;;31.02;44.29;101699.50;107183;1263;22716;-48
2023/08/17 07:52:31;;;;;;;5.90;5.30;;;;;;;30.94;44.23;101699.91;107114;1255;22629;-48
2023/08/17 07:54:59;;;;;;;6.70;6.10;;;;;;;30.87;44.49;101695.19;107138;1263;25356;-47
2023/08/17 07:57:26;;;;;;;6.80;5.70;;;;;;;30.82;44.64;101700.83;106940;1267;25321;-48
2023/08/17 07:59:54;;;;;;;6.70;6.00;;;;;;;30.75;44.50;101699.67;107207;1257;25328;-48
2023/08/17 08:02:21;;;;;;;6.80;6.20;;;;;;;30.69;44.79;101698.41;107110;1263;25344;-48
2023/08/17 08:04:48;;;;;;;7.00;5.70;;;;;;;30.63;45.55;101694.30;107111;1257;25322;-48
2023/08/17 08:07:15;;;;;;;6.60;5.80;;;;;;;30.58;45.47;101694.08;106738;1270;25408;-49
2023/08/17 08:09:42;;;;;;;7.30;6.70;;;;;;;30.52;45.54;101688.89;106781;1271;25322;-49
2023/08/17 08:12:09;;;;;;;6.50;5.90;;;;;;;30.46;45.89;101690.16;107056;1256;25404;-48
2023/08/17 08:14:36;;;;;;;7.70;6.60;;;;;;;30.39;46.27;101689.13;106904;1274;25322;-49
2023/08/17 08:17:03;;;;;;;9.10;6.10;;;;;;;30.37;46.44;101688.13;106755;1274;25322;-49
2023/08/17 08:19:32;;;;;;;7.00;6.40;;;;;;;30.34;46.71;101687.67;107156;1264;25478;-49
2023/08/17 08:21:59;;;;;;;7.70;7.00;;;;;;;30.33;47.00;101683.66;107100;1260;25356;-49
2023/08/17 08:24:31;;;;;;;6.90;6.10;;;;;;;30.33;47.29;101686.15;107121;1257;25439;-49
2023/08/17 08:27:01;;;;;;;6.80;5.70;;;;;;;30.36;47.13;101689.11;107112;1254;22543;-49
2023/08/17 08:29:28;;;;;;;7.60;7.00;;;;;;;30.36;47.09;101686.19;107108;1257;25312;-49
2023/08/17 08:31:57;;;;;;;6.60;6.10;;;;;;;30.38;47.12;101690.31;107100;1260;25319;-50
2023/08/17 08:34:24;;;;;;;7.10;6.40;;;;;;;30.41;47.11;101693.11;107087;1264;25480;-49
2023/08/17 08:36:51;;;;;;;7.90;6.60;;;;;;;30.45;46.99;101690.38;107057;1263;25337;-49
2023/08/17 08:39:18;;;;;;;8.10;6.00;;;;;;;30.50;46.69;101690.98;106902;1260;25346;-49
2023/08/17 08:41:45;;;;;;;8.70;6.70;;;;;;;30.52;46.21;101692.42;106874;1273;25328;-49
2023/08/17 08:44:12;;;;;;;9.60;6.30;;;;;;;30.47;46.25;101692.13;106865;1273;25331;-49
2023/08/17 08:46:41;;;;;;;6.50;5.90;;;;;;;30.48;46.41;101694.60;107144;1257;25370;-49
2023/08/17 08:49:10;;;;;;;6.60;5.90;;;;;;;30.50;46.40;101696.77;107048;1254;25411;-49
2023/08/17 08:51:41;;;;;;;7.70;6.20;;;;;;;30.49;46.62;101701.65;107066;1265;22529;-49
2023/08/17 08:54:10;;;;;;;7.70;6.20;;;;;;;30.49;46.71;101699.30;106847;1270;25472;-49
2023/08/17 08:56:37;;;;;;;6.40;5.80;;;;;;;30.52;46.72;101697.48;107064;1257;25480;-49
2023/08/17 08:59:04;;;;;;;7.20;6.30;;;;;;;30.53;46.65;101695.91;107152;1256;24180;-49
2023/08/17 09:01:31;;;;;;;7.50;6.30;;;;;;;30.57;46.77;101692.44;107089;1260;22717;-50
2023/08/17 09:04:02;;;;;;;9.50;6.30;;;;;;;30.59;46.65;101694.70;107067;1257;22636;-49
2023/08/17 09:06:30;;;;;;;7.10;6.20;;;;;;;30.62;46.73;101694.95;107077;1263;25322;-49
2023/08/17 09:08:58;;;;;;;8.90;6.60;;;;;;;30.66;46.62;101695.86;107132;1258;25407;-49
2023/08/17 09:11:25;;;;;;;8.80;6.20;;;;;;;30.69;46.65;101692.54;107030;1254;25315;-51
2023/08/17 09:13:52;;;;;;;7.00;6.30;;;;;;;30.75;46.72;101696.28;106886;1260;25405;-50
2023/08/17 09:16:20;;;;;;;6.90;6.30;;;;;;;30.82;46.28;101692.02;106907;1273;25316;-49
2023/08/17 09:18:54;;;;;;;11.50;6.90;;;;;;;30.87;46.03;101691.58;106763;1260;25469;-51
2023/08/17 09:21:25;;;;;;;6.40;5.50;;;;;;;30.90;46.06;101689.20;106736;1259;25372;-48
2023/08/17 09:23:55;;;;;;;9.20;6.50;;;;;;;30.93;45.84;101685.98;106692;1268;23342;-49
2023/08/17 09:26:30;;;;;;;6.90;6.20;;;;;;;31.00;45.49;101685.89;106793;1260;25336;-48
2023/08/17 09:28:58;;;;;;;7.30;6.30;;;;;;;31.14;45.07;101686.57;106934;1266;25343;-50
2023/08/17 09:31:26;;;;;;;7.70;6.40;;;;;;;31.30;44.76;101682.46;106856;1259;25363;-50
2023/08/17 09:33:53;;;;;;;7.80;5.70;;;;;;;31.38;44.98;101681.02;106826;1260;25474;-50
2023/08/17 09:36:25;;;;;;;7.80;6.50;;;;;;;31.45;44.34;101679.80;106704;1263;25519;-50
2023/08/17 09:38:52;;;;;;;7.00;6.40;;;;;;;31.51;44.15;101682.33;106822;1266;25369;-50
2023/08/17 09:41:19;;;;;;;8.00;5.80;;;;;;;31.57;44.19;101686.39;106753;1270;25423;-50
2023/08/17 09:43:46;;;;;;;8.20;6.20;;;;;;;31.61;44.06;101684.16;106840;1260;25510;-50
2023/08/17 09:46:14;;;;;;;6.40;5.90;;;;;;;31.59;44.06;101689.41;106774;1268;25392;-50
2023/08/17 09:48:43;;;;;;;6.40;5.80;;;;;;;31.53;44.06;101687.45;106702;1269;24392;-50
2023/08/17 09:51:10;;;;;;;6.40;5.80;;;;;;;31.59;43.99;101687.11;107119;1260;25340;-50
2023/08/17 09:53:37;;;;;;;6.90;6.10;;;;;;;31.65;43.81;101686.48;107186;1257;25449;-50
2023/08/17 09:56:10;;;;;;;8.30;6.50;;;;;;;31.77;43.78;101686.61;107050;1254;25378;-49
2023/08/17 09:58:43;;;;;;;6.50;5.90;;;;;;;31.93;43.53;101686.45;106997;1265;25340;-49
2023/08/17 10:01:10;;;;;;;7.00;6.00;;;;;;;31.86;43.66;101681.73;106819;1263;22618;-49
2023/08/17 10:03:37;;;;;;;6.90;5.90;;;;;;;31.89;43.61;101684.30;106910;1259;25403;-49
2023/08/17 10:06:09;;;;;;;6.90;6.10;;;;;;;31.93;43.30;101684.47;107115;1266;25350;-49
2023/08/17 10:08:42;;;;;;;8.50;6.80;;;;;;;31.96;43.30;101684.73;107207;1260;24199;-49
2023/08/17 10:11:10;;;;;;;7.20;6.40;;;;;;;31.98;43.04;101680.91;107149;1263;25350;-49
2023/08/17 10:13:44;;;;;;;6.50;5.80;;;;;;;32.02;42.88;101678.55;107107;1254;25331;-49
2023/08/17 10:16:22;;;;;;;7.00;5.40;;;;;;;32.05;42.87;101681.16;107147;1257;25356;-49
2023/08/17 10:19:05;;;;;;;6.60;6.00;;;;;;;32.08;42.90;101683.16;107117;1254;22571;-49
2023/08/17 10:21:40;;;;;;;8.80;6.00;;;;;;;32.22;43.01;101683.14;107083;1267;25337;-49
2023/08/17 10:24:07;;;;;;;11.80;6.90;;;;;;;32.36;42.68;101681.32;107100;1261;25414;-49
2023/08/17 10:26:34;;;;;;;7.10;6.40;;;;;;;32.41;42.57;101681.02;106909;1266;25443;-49
2023/08/17 10:29:02;;;;;;;8.00;6.30;;;;;;;32.43;42.68;101679.16;106998;1257;22540;-49
2023/08/17 10:31:40;;;;;;;6.30;5.70;;;;;;;32.45;42.70;101675.22;107045;1272;25330;-49
2023/08/17 10:34:07;;;;;;;7.40;6.20;;;;;;;32.48;42.63;101676.21;107199;1263;22546;-49
2023/08/17 10:36:34;;;;;;;6.10;5.40;;;;;;;32.50;42.35;101674.45;107057;1264;25359;-49
2023/08/17 10:39:20;;;;;;;6.50;5.70;;;;;;;32.51;42.31;101671.20;106923;1264;25477;-49
2023/08/17 10:41:48;;;;;;;6.30;5.80;;;;;;;32.54;42.09;101672.36;107100;1264;25350;-49
2023/08/17 10:44:37;;;;;;;9.00;5.80;;;;;;;32.55;41.92;101669.96;107126;1256;25356;-49
2023/08/17 10:47:22;;;;;;;7.20;6.10;;;;;;;32.54;41.56;101671.45;107070;1271;25340;-49
2023/08/17 10:49:56;;;;;;;6.10;5.60;;;;;;;32.57;41.87;101671.55;107135;1260;25366;-49
2023/08/17 10:52:29;;;;;;;6.80;6.00;;;;;;;32.61;41.93;101670.20;107184;1259;25349;-49
2023/08/17 10:54:58;;;;;;;6.50;5.80;;;;;;;32.66;41.66;101670.09;107076;1263;25366;-49
2023/08/17 10:57:41;;;;;;;7.40;5.80;;;;;;;32.71;41.42;101670.14;107072;1265;25359;-49
2023/08/17 11:00:32;;;;;;;6.50;5.70;;;;;;;32.75;41.52;101672.42;106913;1264;25321;-49
2023/08/17 11:03:01;;;;;;;6.40;5.80;;;;;;;32.80;41.34;101672.98;106898;1269;25356;-49
2023/08/17 11:05:35;;;;;;;13.30;6.40;;;;;;;32.83;41.14;101670.68;107060;1263;23916;-49
2023/08/17 11:08:03;;;;;;;11.90;6.00;;;;;;;32.85;41.29;101669.93;107042;1260;25346;-49
2023/08/17 11:10:31;;;;;;;7.80;5.90;;;;;;;32.87;41.15;101671.73;106840;1259;24205;-49
2023/08/17 11:13:01;;;;;;;6.90;5.30;;;;;;;32.94;40.61;101670.64;107189;1257;25309;-49
2023/08/17 11:15:41;;;;;;;9.00;5.90;;;;;;;32.97;40.54;101673.70;107154;1264;25491;-49
2023/08/17 11:18:10;;;;;;;6.70;5.30;;;;;;;33.02;39.90;101676.67;107087;1263;23136;-49
2023/08/17 11:20:38;;;;;;;6.60;6.00;;;;;;;33.06;39.87;101670.70;106952;1266;22762;-49
2023/08/17 11:23:06;;;;;;;6.10;5.10;;;;;;;33.08;39.87;101668.51;107131;1263;25492;-49